地図

経路データ

SID SEASON NUMBER BASIN SUBBASIN NAME ISO_TIME NATURE LAT LON WMO_WIND WMO_PRES WMO_AGENCY TRACK_TYPE DIST2LAND LANDFALL IFLAG USA_AGENCY USA_ATCF_ID USA_LAT USA_LON USA_RECORD USA_STATUS USA_WIND USA_PRES USA_SSHS USA_R34_NE USA_R34_SE USA_R34_SW USA_R34_NW USA_R50_NE USA_R50_SE USA_R50_SW USA_R50_NW USA_R64_NE USA_R64_SE USA_R64_SW USA_R64_NW USA_POCI USA_ROCI USA_RMW USA_EYE TOKYO_LAT TOKYO_LON TOKYO_GRADE TOKYO_WIND TOKYO_PRES TOKYO_R50_DIR TOKYO_R50_LONG TOKYO_R50_SHORT TOKYO_R30_DIR TOKYO_R30_LONG TOKYO_R30_SHORT TOKYO_LAND CMA_LAT CMA_LON CMA_CAT CMA_WIND CMA_PRES HKO_LAT HKO_LON HKO_CAT HKO_WIND HKO_PRES NEWDELHI_LAT NEWDELHI_LON NEWDELHI_GRADE NEWDELHI_WIND NEWDELHI_PRES NEWDELHI_CI NEWDELHI_DP NEWDELHI_POCI REUNION_LAT REUNION_LON REUNION_TYPE REUNION_WIND REUNION_PRES REUNION_TNUM REUNION_CI REUNION_RMW REUNION_R34_NE REUNION_R34_SE REUNION_R34_SW REUNION_R34_NW REUNION_R50_NE REUNION_R50_SE REUNION_R50_SW REUNION_R50_NW REUNION_R64_NE REUNION_R64_SE REUNION_R64_SW REUNION_R64_NW BOM_LAT BOM_LON BOM_TYPE BOM_WIND BOM_PRES BOM_TNUM BOM_CI BOM_RMW BOM_R34_NE BOM_R34_SE BOM_R34_SW BOM_R34_NW BOM_R50_NE BOM_R50_SE BOM_R50_SW BOM_R50_NW BOM_R64_NE BOM_R64_SE BOM_R64_SW BOM_R64_NW BOM_ROCI BOM_POCI BOM_EYE BOM_POS_METHOD BOM_PRES_METHOD NADI_LAT NADI_LON NADI_CAT NADI_WIND NADI_PRES WELLINGTON_LAT WELLINGTON_LON WELLINGTON_WIND WELLINGTON_PRES DS824_LAT DS824_LON DS824_STAGE DS824_WIND DS824_PRES TD9636_LAT TD9636_LON TD9636_STAGE TD9636_WIND TD9636_PRES TD9635_LAT TD9635_LON TD9635_WIND TD9635_PRES TD9635_ROCI NEUMANN_LAT NEUMANN_LON NEUMANN_CLASS NEUMANN_WIND NEUMANN_PRES MLC_LAT MLC_LON MLC_CLASS MLC_WIND MLC_PRES USA_GUST BOM_GUST BOM_GUST_PER REUNION_GUST REUNION_GUST_PER USA_SEAHGT USA_SEARAD_NE USA_SEARAD_SE USA_SEARAD_SW USA_SEARAD_NW STORM_SPEED STORM_DIR
1923290N20265 1923 69 NA GM NOT_NAMED 1923-10-16 12:00:00 TS 20.5000 -95.0000 35 hurdat_atl main 160 160 O_____________ hurdat_atl AL081923 20.5000 -95.0000 TS 35 0 11 65
1923290N20265 1923 69 NA GM NOT_NAMED 1923-10-16 15:00:00 TS 20.7254 -94.4904 main 217 217 P_____________ AL081923 20.7254 -94.4904 TS 35 0 11 62
1923290N20265 1923 69 NA GM NOT_NAMED 1923-10-16 18:00:00 TS 21.0000 -94.0000 35 hurdat_atl main 278 278 O_____________ hurdat_atl AL081923 21.0000 -94.0000 TS 35 0 11 55
1923290N20265 1923 69 NA GM NOT_NAMED 1923-10-16 21:00:00 TS 21.3621 -93.5295 main 324 290 P_____________ AL081923 21.3621 -93.5295 TS 35 0 12 49
1923290N20265 1923 69 NA GM NOT_NAMED 1923-10-17 00:00:00 TS 21.8000 -93.0000 35 hurdat_atl main 290 249 O_____________ hurdat_atl AL081923 21.8000 -93.0000 TS 35 0 14 50
1923290N20265 1923 69 NA GM NOT_NAMED 1923-10-17 03:00:00 TS 22.2699 -92.3445 main 246 229 P_____________ AL081923 22.2699 -92.3445 TS 37 0 16 52
1923290N20265 1923 69 NA GM NOT_NAMED 1923-10-17 06:00:00 TS 22.8000 -91.6000 40 hurdat_atl main 232 230 O_____________ hurdat_atl AL081923 22.8000 -91.6000 TS 40 0 18 55
1923290N20265 1923 69 NA GM NOT_NAMED 1923-10-17 09:00:00 TS 23.2879 -90.7762 main 251 248 P_____________ AL081923 23.2879 -90.7762 TS 42 0 19 51
1923290N20265 1923 69 NA GM NOT_NAMED 1923-10-17 12:00:00 TS 24.0000 -90.0000 45 hurdat_atl main 310 310 O_____________ hurdat_atl AL081923 24.0000 -90.0000 TS 45 0 22 37
1923290N20265 1923 69 NA GM NOT_NAMED 1923-10-17 15:00:00 TS 25.0777 -89.3247 main 408 290 P_____________ AL081923 25.0777 -89.3247 TS 47 0 27 22
1923290N20265 1923 69 NA GM NOT_NAMED 1923-10-17 18:00:00 TS 26.5000 -88.9000 50 hurdat_atl main 279 80 O_____________ hurdat_atl AL081923 26.5000 -88.9000 TS 50 0 34 7
1923290N20265 1923 69 NA GM NOT_NAMED 1923-10-17 21:00:00 TS 28.4192 -88.8883 main 69 9 P_____________ AL081923 28.4192 -88.8883 TS 50 0 35 359
1923290N20265 1923 69 NA GM NOT_NAMED 1923-10-18 00:00:00 TS 30.0000 -89.0000 50 992 hurdat_atl main 30 22 O_____________ hurdat_atl AL081923 30.0000 -89.0000 TS 50 992 0 28 357
1923290N20265 1923 69 NA GM NOT_NAMED 1923-10-18 01:00:00 TS 30.3000 -89.0000 50 992 hurdat_atl main 11 0 O_____________ hurdat_atl AL081923 30.3000 -89.0000 L TS 50 992 0 24 0
1923290N20265 1923 69 NA NA NOT_NAMED 1923-10-18 03:00:00 TS 31.2035 -89.0263 main 0 0 P_____________ AL081923 31.2035 -89.0263 TS 45 994 0 31 358
1923290N20265 1923 69 NA NA NOT_NAMED 1923-10-18 06:00:00 TS 32.9000 -89.1000 40 997 hurdat_atl main 0 0 O_____________ hurdat_atl AL081923 32.9000 -89.1000 TS 40 997 0 31 357
1923290N20265 1923 69 NA NA NOT_NAMED 1923-10-18 09:00:00 TS 34.2865 -89.1940 main 0 0 P_____________ AL081923 34.2865 -89.1940 TS 37 0 26 358
1923290N20265 1923 69 NA NA NOT_NAMED 1923-10-18 12:00:00 ET 35.5000 -89.2000 35 hurdat_atl main 0 0 O_____________ hurdat_atl AL081923 35.5000 -89.2000 EX 35 -4 23 3
1923290N20265 1923 69 NA NA NOT_NAMED 1923-10-18 15:00:00 ET 36.5445 -89.0464 main 0 0 P_____________ AL081923 36.5445 -89.0464 EX 32 -4 20 11
1923290N20265 1923 69 NA NA NOT_NAMED 1923-10-18 18:00:00 ET 37.5000 -88.7000 30 hurdat_atl main 0 0 O_____________ hurdat_atl AL081923 37.5000 -88.7000 EX 30 -4 21 19
1923290N20265 1923 69 NA NA NOT_NAMED 1923-10-18 21:00:00 ET 38.4998 -88.1816 main 0 0 P_____________ AL081923 38.4998 -88.1816 EX 30 -4 22 25
1923290N20265 1923 69 NA NA NOT_NAMED 1923-10-19 00:00:00 ET 39.5000 -87.5000 30 hurdat_atl main 0 0 O_____________ hurdat_atl AL081923 39.5000 -87.5000 EX 30 -4 23 29
1923290N20265 1923 69 NA NA NOT_NAMED 1923-10-19 03:00:00 ET 40.4995 -86.7504 main 0 0 P_____________ AL081923 40.4995 -86.7504 EX 32 -4 23 31
1923290N20265 1923 69 NA NA NOT_NAMED 1923-10-19 06:00:00 ET 41.5000 -85.9000 35 hurdat_atl main 0 0 O_____________ hurdat_atl AL081923 41.5000 -85.9000 EX 35 -4 24 34
1923290N20265 1923 69 NA NA NOT_NAMED 1923-10-19 09:00:00 ET 42.5074 -84.9637 main 0 0 P_____________ AL081923 42.5074 -84.9637 EX 35 -4 24 35
1923290N20265 1923 69 NA NA NOT_NAMED 1923-10-19 12:00:00 ET 43.5000 -84.0000 35 hurdat_atl main 0 0 O_____________ hurdat_atl AL081923 43.5000 -84.0000 EX 35 -4 24 35
1923290N20265 1923 69 NA NA NOT_NAMED 1923-10-19 15:00:00 ET 44.4644 -83.0750 main 0 0 P_____________ AL081923 44.4644 -83.0750 EX 35 -4 23 34
1923290N20265 1923 69 NA NA NOT_NAMED 1923-10-19 18:00:00 ET 45.4000 -82.2000 35 hurdat_atl main 0 0 O_____________ hurdat_atl AL081923 45.4000 -82.2000 EX 35 -4 22 33
1923290N20265 1923 69 NA NA NOT_NAMED 1923-10-19 21:00:00 ET 46.2991 -81.3810 main 0 0 P_____________ AL081923 46.2991 -81.3810 EX 35 -4 21 32
1923290N20265 1923 69 NA NA NOT_NAMED 1923-10-20 00:00:00 ET 47.2000 -80.6000 35 hurdat_atl main 0 0 O_____________ hurdat_atl AL081923 47.2000 -80.6000 EX 35 -4 21 30
1923290N20265 1923 69 NA NA NOT_NAMED 1923-10-20 03:00:00 ET 48.1413 -79.8257 main 0 0 P_____________ AL081923 48.1413 -79.8257 EX 35 -4 22 29
1923290N20265 1923 69 NA NA NOT_NAMED 1923-10-20 06:00:00 ET 49.1000 -79.0000 35 hurdat_atl main 0 0 O_____________ hurdat_atl AL081923 49.1000 -79.0000 EX 35 -4 22 31
1923290N20265 1923 69 NA NA NOT_NAMED 1923-10-20 09:00:00 ET 50.0414 -78.0624 main 0 0 P_____________ AL081923 50.0414 -78.0624 EX 35 -4 23 34
1923290N20265 1923 69 NA NA NOT_NAMED 1923-10-20 12:00:00 ET 51.0000 -77.0000 35 hurdat_atl main 0 0 O_____________ hurdat_atl AL081923 51.0000 -77.0000 EX 35 -4 24 36
1923290N20265 1923 69 NA NA NOT_NAMED 1923-10-20 15:00:00 ET 51.9538 -75.8159 main 0 0 P_____________ AL081923 51.9538 -75.8159 EX 35 -4 25 38
1923290N20265 1923 69 NA NA NOT_NAMED 1923-10-20 18:00:00 ET 53.0000 -74.5000 35 hurdat_atl main 0 0 O_____________ hurdat_atl AL081923 53.0000 -74.5000 EX 35 -4 28 37
1923290N20265 1923 69 NA NA NOT_NAMED 1923-10-20 21:00:00 ET 54.1736 -73.0642 main 0 0 P_____________ AL081923 54.1736 -73.0642 EX 32 -4 30 35
1923290N20265 1923 69 NA NA NOT_NAMED 1923-10-21 00:00:00 ET 55.5000 -71.5000 30 hurdat_atl main 0 0 O_____________ hurdat_atl AL081923 55.5000 -71.5000 EX 30 -4 33 34
1923290N20265 1923 69 NA NA NOT_NAMED 1923-10-21 03:00:00 ET 56.8861 -69.8028 main 0 0 P_____________ AL081923 56.8861 -69.8028 EX 30 -4 35 33
1923290N20265 1923 69 NA NA NOT_NAMED 1923-10-21 06:00:00 ET 58.5000 -68.0000 30 hurdat_atl main 0 0 O_____________ hurdat_atl AL081923 58.5000 -68.0000 EX 30 -4 40 29
1923290N20265 1923 69 NA NA NOT_NAMED 1923-10-21 09:00:00 ET 60.3875 -66.0244 main 64 46 P_____________ AL081923 60.3875 -66.0244 EX 30 -4 44 26
1923290N20265 1923 69 NA NA NOT_NAMED 1923-10-21 12:00:00 ET 62.5000 -64.0000 30 hurdat_atl main 47 45 O_____________ hurdat_atl AL081923 62.5000 -64.0000 EX 30 -4 47 23
1923290N20265 1923 69 NA NA NOT_NAMED 1923-10-21 15:00:00 ET 64.7277 -62.0501 main 69 36 P_____________ AL081923 64.7277 -62.0501 EX 30 -4 48 21
1923290N20265 1923 69 NA NA NOT_NAMED 1923-10-21 18:00:00 ET 67.0000 -60.0000 30 hurdat_atl main 65 O_____________ hurdat_atl AL081923 67.0000 -60.0000 EX 30 -4 48 19

IBTrACS Databaseについて

本データベースは、米国NOAAが公開する1842年以降の世界の熱帯低気圧のベストトラックデータアーカイブInternational Best Track Archive for Climate Stewardship (IBTrACS)を、ウェブで閲覧しやすい形式に変換したものです。

最終更新日:2021-12-03